Time;durP1;ratioP1;P1;durP2;ratioP2;P2;SDS_P1;SDS_P2;PMS_P1;PMS_P2;Temp;Humidity;BMP_temperature;BMP_pressure;BME280_temperature;BME280_humidity;BME280_pressure;Samples;Min_cycle;Max_cycle;Signal;HPM_P1;HPM_P2
2022/10/24 00:00:29;;;;;;;8.00;3.00;;;13.10;99.90;;;;;;4990214;28;20061;-81
2022/10/24 00:02:55;;;;;;;4.63;2.80;;;13.00;99.90;;;;;;4988765;28;20097;-81
2022/10/24 00:05:21;;;;;;;5.05;2.55;;;13.10;99.90;;;;;;4972557;28;20033;-80
2022/10/24 00:07:49;;;;;;;4.90;2.90;;;13.10;99.90;;;;;;4993354;28;20404;-80
2022/10/24 00:10:16;;;;;;;3.85;2.53;;;13.10;99.90;;;;;;4987902;28;20026;-80
2022/10/24 00:12:42;;;;;;;9.20;2.85;;;13.10;99.90;;;;;;4990737;28;20034;-81
2022/10/24 00:15:08;;;;;;;5.13;3.00;;;13.10;99.90;;;;;;5003110;28;20054;-80
2022/10/24 00:17:34;;;;;;;4.30;2.85;;;13.00;99.90;;;;;;4974116;28;20088;-81
2022/10/24 00:19:59;;;;;;;3.75;2.97;;;13.00;99.90;;;;;;4992013;28;20030;-80
2022/10/24 00:22:26;;;;;;;6.38;3.10;;;13.00;99.90;;;;;;4988903;28;20034;-80
2022/10/24 00:24:52;;;;;;;8.55;3.60;;;13.00;99.90;;;;;;4998705;28;20038;-81
2022/10/24 00:27:18;;;;;;;4.90;2.78;;;13.10;99.90;;;;;;4992021;28;20030;-81
2022/10/24 00:29:44;;;;;;;6.53;3.22;;;13.00;99.90;;;;;;5010311;28;20091;-80
2022/10/24 00:32:10;;;;;;;8.23;3.67;;;13.00;99.90;;;;;;4996127;28;20034;-80
2022/10/24 00:34:37;;;;;;;6.07;3.17;;;13.00;99.90;;;;;;5007397;28;20029;-80
2022/10/24 00:37:03;;;;;;;4.72;3.42;;;13.00;99.90;;;;;;4995226;28;20034;-80
2022/10/24 00:39:29;;;;;;;6.95;3.00;;;13.00;99.90;;;;;;4980852;28;20045;-80
2022/10/24 00:41:57;;;;;;;5.03;3.20;;;12.90;99.90;;;;;;4989848;28;20373;-80
2022/10/24 00:44:30;;;;;;;4.95;3.20;;;12.90;99.90;;;;;;4990687;28;20108;-80
2022/10/24 00:47:24;;;;;;;4.53;3.00;;;12.80;99.90;;;;;;5006863;28;20034;-80
2022/10/24 00:49:59;;;;;;;7.45;3.45;;;12.90;99.90;;;;;;4990449;28;20108;-80
2022/10/24 00:52:34;;;;;;;4.80;3.17;;;12.80;99.90;;;;;;4997922;28;20030;-81
2022/10/24 00:55:01;;;;;;;7.20;3.30;;;12.70;99.90;;;;;;4974021;28;20415;-80
2022/10/24 00:57:53;;;;;;;6.30;3.35;;;12.70;99.90;;;;;;5004849;28;20038;-80
2022/10/24 01:00:28;;;;;;;6.53;3.22;;;12.70;99.90;;;;;;4970494;28;20038;-80
2022/10/24 01:02:54;;;;;;;4.40;2.92;;;12.60;99.90;;;;;;4993457;28;20524;-81
2022/10/24 01:05:22;;;;;;;5.95;2.75;;;12.60;99.90;;;;;;4990564;28;20043;-80
2022/10/24 01:08:08;;;;;;;8.40;3.60;;;12.50;99.90;;;;;;5004918;28;20081;-81
2022/10/24 01:10:51;;;;;;;;;;;12.40;99.90;;;;;;4972031;28;20030;-81
2022/10/24 01:13:22;;;;;;;4.53;3.15;;;12.40;99.90;;;;;;4989486;28;20371;-80
2022/10/24 01:16:00;;;;;;;7.93;3.20;;;12.30;99.90;;;;;;4994529;28;20033;-81
2022/10/24 01:18:45;;;;;;;5.80;3.25;;;12.20;99.90;;;;;;5009241;28;20128;-81
2022/10/24 01:21:14;;;;;;;4.75;2.92;;;12.20;99.90;;;;;;5006075;28;20064;-80
2022/10/24 01:23:51;;;;;;;3.88;2.83;;;12.10;99.90;;;;;;5003403;28;20035;-81
2022/10/24 01:26:29;;;;;;;4.53;2.88;;;12.10;99.90;;;;;;4996523;28;20512;-80
2022/10/24 01:29:15;;;;;;;4.85;2.60;;;12.10;99.90;;;;;;4988637;28;20062;-81
2022/10/24 01:32:00;;;;;;;5.20;3.25;;;12.20;99.90;;;;;;5008292;28;20053;-80
2022/10/24 01:34:39;;;;;;;3.97;2.65;;;12.20;99.90;;;;;;4971671;28;20057;-80
2022/10/24 01:37:09;;;;;;;4.85;2.88;;;12.30;99.90;;;;;;4999491;28;20514;-81
2022/10/24 01:39:47;;;;;;;7.95;2.97;;;12.30;99.90;;;;;;4978597;28;20041;-81
2022/10/24 01:42:16;;;;;;;4.63;2.40;;;12.20;99.90;;;;;;4989221;28;20157;-80
2022/10/24 01:44:47;;;;;;;5.85;2.22;;;12.20;99.90;;;;;;4974042;28;20065;-81
2022/10/24 01:47:18;;;;;;;5.35;2.22;;;12.10;99.90;;;;;;4975717;28;20034;-80
2022/10/24 01:49:50;;;;;;;3.67;3.05;;;12.10;99.90;;;;;;4989272;28;20133;-80
2022/10/24 01:52:18;;;;;;;4.47;2.10;;;12.00;99.90;;;;;;4998522;28;20038;-80
2022/10/24 01:54:45;;;;;;;6.97;2.30;;;12.00;99.90;;;;;;4990333;28;20109;-81
2022/10/24 01:57:12;;;;;;;6.88;1.88;;;11.90;99.90;;;;;;4993330;28;20030;-80
2022/10/24 01:59:41;;;;;;;5.72;2.47;;;11.90;99.90;;;;;;4990689;28;20376;-80
2022/10/24 02:02:35;;;;;;;3.92;1.90;;;11.90;99.90;;;;;;4991755;28;20037;-81
2022/10/24 02:05:24;;;;;;;5.47;2.10;;;11.90;99.90;;;;;;4968763;28;20527;-80
2022/10/24 02:07:56;;;;;;;3.35;2.03;;;11.90;99.90;;;;;;4989508;28;20069;-80
2022/10/24 02:10:46;;;;;;;3.42;1.60;;;11.90;99.90;;;;;;5005022;28;20114;-80
2022/10/24 02:13:22;;;;;;;6.47;2.28;;;11.90;99.90;;;;;;4987597;28;20065;-80
2022/10/24 02:15:51;;;;;;;3.75;1.75;;;12.00;99.90;;;;;;5009143;28;20099;-80
2022/10/24 02:18:18;;;;;;;2.20;1.48;;;12.00;99.90;;;;;;5010695;28;20033;-81
2022/10/24 02:20:57;;;;;;;6.47;2.08;;;12.00;99.90;;;;;;5004448;28;20499;-80
2022/10/24 02:23:36;;;;;;;6.18;1.58;;;12.00;99.90;;;;;;4988950;28;20493;-80
2022/10/24 02:26:07;;;;;;;3.50;1.38;;;12.00;99.90;;;;;;4989424;28;20033;-79
2022/10/24 02:28:41;;;;;;;3.28;1.50;;;11.90;99.90;;;;;;4969084;28;20042;-80
2022/10/24 02:31:14;;;;;;;2.20;1.30;;;11.90;99.90;;;;;;4979990;28;20042;-81
2022/10/24 02:33:42;;;;;;;3.35;1.45;;;11.90;99.90;;;;;;4993367;28;20046;-79
2022/10/24 02:36:14;;;;;;;2.65;1.20;;;11.80;99.90;;;;;;4996240;28;20045;-81
2022/10/24 02:38:43;;;;;;;4.40;1.65;;;11.80;99.90;;;;;;4988659;28;20034;-81
2022/10/24 02:41:13;;;;;;;2.90;1.20;;;11.80;99.90;;;;;;4988455;28;20038;-79
2022/10/24 02:43:42;;;;;;;3.20;1.15;;;11.80;99.90;;;;;;4987503;28;20045;-80
2022/10/24 02:46:09;;;;;;;3.70;1.40;;;11.80;99.90;;;;;;4982454;28;20042;-80
2022/10/24 02:48:41;;;;;;;4.25;1.60;;;11.80;99.90;;;;;;5004528;28;20403;-80
2022/10/24 02:51:07;;;;;;;1.65;1.02;;;11.80;99.90;;;;;;4988299;28;20057;-80
2022/10/24 02:53:35;;;;;;;3.78;1.50;;;11.80;99.90;;;;;;4984712;28;20073;-81
2022/10/24 02:56:01;;;;;;;2.30;1.00;;;11.80;99.90;;;;;;4980505;28;20045;-80
2022/10/24 02:58:27;;;;;;;2.83;1.02;;;11.70;99.90;;;;;;4972147;28;20035;-80
2022/10/24 03:00:53;;;;;;;5.18;1.00;;;11.70;99.90;;;;;;4977830;28;20117;-80
2022/10/24 03:03:18;;;;;;;4.13;1.20;;;11.70;99.90;;;;;;4998319;28;20057;-81
2022/10/24 03:05:44;;;;;;;4.07;1.50;;;11.70;99.90;;;;;;4992705;28;20045;-80
2022/10/24 03:08:11;;;;;;;2.92;1.30;;;11.80;99.90;;;;;;5008999;28;20107;-79
2022/10/24 03:10:37;;;;;;;3.72;0.82;;;11.80;99.90;;;;;;4987311;28;20608;-81
2022/10/24 03:13:03;;;;;;;2.72;1.10;;;11.80;99.90;;;;;;4987825;28;20054;-80
2022/10/24 03:15:29;;;;;;;4.53;1.15;;;11.90;99.90;;;;;;4974280;28;20793;-80
2022/10/24 03:17:55;;;;;;;2.70;0.80;;;11.90;99.90;;;;;;4992332;28;20081;-80
2022/10/24 03:20:21;;;;;;;2.35;0.90;;;11.90;99.90;;;;;;4987815;28;20034;-80
2022/10/24 03:22:47;;;;;;;3.05;0.90;;;11.80;99.90;;;;;;4991230;28;20425;-80
2022/10/24 03:25:12;;;;;;;1.88;0.80;;;11.80;99.90;;;;;;4997377;28;20037;-80
2022/10/24 03:27:38;;;;;;;2.28;0.90;;;11.80;99.90;;;;;;5012852;28;20046;-80
2022/10/24 03:30:05;;;;;;;2.28;1.10;;;11.80;99.90;;;;;;4968278;28;20043;-80
2022/10/24 03:32:32;;;;;;;4.60;1.17;;;11.80;99.90;;;;;;4984919;28;20089;-80
2022/10/24 03:34:59;;;;;;;4.38;1.20;;;11.80;99.90;;;;;;4987786;28;20105;-80
2022/10/24 03:37:25;;;;;;;1.63;0.80;;;11.80;99.90;;;;;;5000671;28;20045;-80
2022/10/24 03:39:51;;;;;;;1.67;0.68;;;11.80;99.90;;;;;;4988987;28;20030;-80
2022/10/24 03:42:17;;;;;;;4.15;0.85;;;11.80;99.90;;;;;;4976913;28;20035;-80
2022/10/24 03:44:43;;;;;;;4.55;1.30;;;11.70;99.90;;;;;;4968242;28;20307;-80
2022/10/24 03:47:09;;;;;;;4.75;1.30;;;11.70;99.90;;;;;;4992416;28;20118;-81
2022/10/24 03:49:35;;;;;;;3.72;1.10;;;11.70;99.90;;;;;;4969272;28;20046;-81
2022/10/24 03:52:01;;;;;;;2.63;1.05;;;11.70;99.90;;;;;;4992234;28;20030;-81
2022/10/24 03:54:26;;;;;;;4.93;1.00;;;11.70;99.90;;;;;;4991508;28;20108;-81
2022/10/24 03:56:52;;;;;;;2.78;1.05;;;11.70;99.90;;;;;;4991302;28;20121;-82
2022/10/24 03:59:18;;;;;;;3.30;1.30;;;11.70;99.90;;;;;;4991120;28;20046;-81
2022/10/24 04:01:44;;;;;;;5.40;1.35;;;11.80;99.90;;;;;;4987354;28;20531;-82
2022/10/24 04:04:10;;;;;;;2.90;1.10;;;11.90;99.90;;;;;;4964618;28;20110;-81
2022/10/24 04:06:36;;;;;;;2.88;0.95;;;12.10;99.90;;;;;;5003783;28;20096;-80
2022/10/24 04:09:02;;;;;;;4.47;1.35;;;12.10;99.90;;;;;;5011095;28;20065;-81
2022/10/24 04:11:27;;;;;;;4.63;1.30;;;12.20;99.90;;;;;;5002082;28;20084;-79
2022/10/24 04:13:53;;;;;;;7.93;1.10;;;12.40;99.90;;;;;;4991244;28;20034;-81
2022/10/24 04:16:19;;;;;;;6.55;1.52;;;12.50;99.90;;;;;;5000560;28;20411;-80
2022/10/24 04:18:45;;;;;;;3.90;1.48;;;12.70;99.90;;;;;;5011407;28;20033;-81
2022/10/24 04:21:12;;;;;;;4.88;1.05;;;12.80;99.90;;;;;;5002286;28;20050;-81
2022/10/24 04:23:40;;;;;;;2.83;1.30;;;12.90;99.90;;;;;;4991531;28;20074;-80
2022/10/24 04:26:13;;;;;;;6.63;4.05;;;13.00;99.90;;;;;;4980608;28;20060;-80
2022/10/24 04:28:39;;;;;;;6.30;2.35;;;13.00;99.90;;;;;;4987943;28;20074;-81
2022/10/24 04:31:06;;;;;;;5.95;1.98;;;12.90;99.90;;;;;;5015041;28;20096;-81
2022/10/24 04:33:32;;;;;;;3.42;1.00;;;12.90;99.90;;;;;;4972690;28;20047;-81
2022/10/24 04:35:57;;;;;;;4.32;1.13;;;12.90;99.90;;;;;;4994789;28;20042;-80
2022/10/24 04:38:23;;;;;;;7.60;2.70;;;12.80;99.90;;;;;;4991005;28;20026;-82
2022/10/24 04:40:51;;;;;;;6.93;1.40;;;12.80;99.90;;;;;;4995977;28;20030;-82
2022/10/24 04:43:18;;;;;;;4.57;2.15;;;12.70;99.90;;;;;;5011708;28;20049;-82
2022/10/24 04:45:44;;;;;;;4.68;2.95;;;12.60;99.90;;;;;;4973843;28;20111;-82
2022/10/24 04:48:10;;;;;;;6.43;2.67;;;12.60;99.90;;;;;;4974335;28;20113;-81
2022/10/24 04:50:38;;;;;;;4.53;2.40;;;12.50;99.90;;;;;;4974867;28;20047;-80
2022/10/24 04:53:04;;;;;;;2.80;1.30;;;12.40;99.90;;;;;;5007243;28;20105;-80
2022/10/24 04:55:29;;;;;;;3.70;1.63;;;12.30;99.90;;;;;;4992794;28;20472;-80
2022/10/24 04:57:55;;;;;;;4.07;1.10;;;12.30;99.90;;;;;;5002312;28;20105;-80
2022/10/24 05:00:21;;;;;;;6.35;1.30;;;12.40;99.90;;;;;;4966765;28;20030;-80
2022/10/24 05:02:47;;;;;;;3.30;1.60;;;12.60;99.90;;;;;;5006413;28;20048;-80
2022/10/24 05:05:13;;;;;;;5.10;1.45;;;12.70;99.90;;;;;;5007015;28;20126;-80
2022/10/24 05:07:39;;;;;;;6.47;1.42;;;12.70;99.90;;;;;;4993629;28;20042;-80
2022/10/24 05:10:05;;;;;;;3.65;1.00;;;12.70;99.90;;;;;;4979060;28;20309;-80
2022/10/24 05:12:31;;;;;;;3.67;1.38;;;12.70;99.90;;;;;;5025857;28;20072;-80
2022/10/24 05:14:57;;;;;;;5.70;1.70;;;12.70;99.90;;;;;;4996461;28;20069;-80
2022/10/24 05:17:22;;;;;;;7.05;1.98;;;12.60;99.90;;;;;;4991431;28;20518;-82
2022/10/24 05:19:48;;;;;;;5.18;1.92;;;12.50;99.90;;;;;;4986663;28;20023;-81
2022/10/24 05:22:14;;;;;;;6.30;1.70;;;12.40;99.90;;;;;;5006465;28;20053;-80
2022/10/24 05:24:40;;;;;;;2.95;1.75;;;12.40;99.90;;;;;;4992865;28;20092;-81
2022/10/24 05:27:06;;;;;;;11.38;2.35;;;12.30;99.90;;;;;;5005126;28;20140;-81
2022/10/24 05:29:32;;;;;;;5.20;1.95;;;12.40;99.90;;;;;;5002852;28;20454;-81
2022/10/24 05:31:58;;;;;;;4.55;1.60;;;12.40;99.90;;;;;;4975749;28;20038;-81
2022/10/24 05:34:25;;;;;;;9.25;2.08;;;12.40;99.90;;;;;;4989421;28;20050;-82
2022/10/24 05:36:51;;;;;;;5.70;2.53;;;12.40;99.90;;;;;;4992437;28;20474;-80
2022/10/24 05:39:17;;;;;;;3.63;1.98;;;12.40;99.90;;;;;;4969968;28;20031;-80
2022/10/24 05:41:43;;;;;;;6.40;2.20;;;12.40;99.90;;;;;;4978760;28;20060;-81
2022/10/24 05:44:13;;;;;;;4.75;1.98;;;12.40;99.90;;;;;;4996014;28;20026;-81
2022/10/24 05:46:39;;;;;;;4.15;1.80;;;12.40;99.90;;;;;;4990023;28;20125;-81
2022/10/24 05:49:05;;;;;;;4.97;1.67;;;12.40;99.90;;;;;;4965146;28;20580;-81
2022/10/24 05:51:31;;;;;;;6.05;2.10;;;12.40;99.90;;;;;;4999840;28;20045;-81
2022/10/24 05:53:57;;;;;;;7.32;1.85;;;12.30;99.90;;;;;;4975235;28;20072;-81
2022/10/24 05:56:24;;;;;;;5.82;1.75;;;12.30;99.90;;;;;;4989616;28;20042;-82
2022/10/24 05:58:50;;;;;;;5.13;2.03;;;12.30;99.90;;;;;;4990143;28;20026;-80
2022/10/24 06:01:16;;;;;;;5.50;1.85;;;12.30;99.90;;;;;;4986183;28;20030;-81
2022/10/24 06:03:42;;;;;;;6.18;1.55;;;12.40;99.90;;;;;;4984735;28;20041;-82
2022/10/24 06:06:09;;;;;;;6.97;1.95;;;12.40;99.90;;;;;;4997217;28;20085;-82
2022/10/24 06:08:36;;;;;;;5.15;2.63;;;12.40;99.90;;;;;;4988914;28;20034;-81
2022/10/24 06:11:03;;;;;;;4.18;2.03;;;12.40;99.90;;;;;;4979292;28;20034;-81
2022/10/24 06:13:29;;;;;;;5.55;2.75;;;12.40;99.90;;;;;;5013021;28;20038;-81
2022/10/24 06:15:55;;;;;;;5.00;2.40;;;12.40;99.90;;;;;;4989716;28;20043;-81
2022/10/24 06:18:21;;;;;;;4.10;2.30;;;12.40;99.90;;;;;;4989118;28;20039;-80
2022/10/24 06:20:47;;;;;;;6.07;2.10;;;12.50;99.90;;;;;;4989294;28;20057;-80
2022/10/24 06:23:13;;;;;;;7.57;2.65;;;12.60;99.90;;;;;;4989043;28;20018;-81
2022/10/24 06:25:40;;;;;;;4.57;1.92;;;12.60;99.90;;;;;;4993998;28;20030;-80
2022/10/24 06:28:06;;;;;;;8.52;2.40;;;12.60;99.90;;;;;;4991336;28;20035;-80
2022/10/24 06:30:33;;;;;;;7.13;2.10;;;12.60;99.90;;;;;;4990095;28;20037;-79
2022/10/24 06:33:00;;;;;;;4.97;2.10;;;12.60;99.90;;;;;;4988529;28;20137;-81
2022/10/24 06:35:26;;;;;;;7.88;2.80;;;12.60;99.90;;;;;;4962310;28;20093;-80
2022/10/24 06:37:51;;;;;;;4.85;2.00;;;12.70;99.90;;;;;;4989785;28;20046;-82
2022/10/24 06:40:17;;;;;;;3.22;2.22;;;12.70;99.90;;;;;;4970364;28;20030;-80
2022/10/24 06:42:44;;;;;;;3.55;1.90;;;12.70;99.90;;;;;;4975922;28;20468;-82
2022/10/24 06:45:10;;;;;;;4.25;2.33;;;12.70;99.90;;;;;;4988546;28;20100;-81
2022/10/24 06:47:36;;;;;;;3.72;1.92;;;12.70;99.90;;;;;;4987979;28;20468;-81
2022/10/24 06:50:02;;;;;;;4.95;1.83;;;12.70;99.90;;;;;;4989627;28;20069;-80
2022/10/24 06:52:28;;;;;;;7.28;3.42;;;12.70;99.90;;;;;;4976004;28;20038;-81
2022/10/24 06:54:54;;;;;;;9.13;2.60;;;12.70;99.90;;;;;;4984763;28;20441;-81
2022/10/24 06:57:21;;;;;;;4.75;3.55;;;12.70;99.90;;;;;;4991371;28;20077;-81
2022/10/24 06:59:46;;;;;;;4.38;2.83;;;12.70;99.90;;;;;;5009075;28;20080;-81
2022/10/24 07:02:13;;;;;;;5.07;3.15;;;12.80;99.90;;;;;;5006608;28;20030;-80
2022/10/24 07:04:39;;;;;;;6.50;2.80;;;12.90;99.90;;;;;;4972315;28;20042;-81
2022/10/24 07:07:05;;;;;;;6.20;3.67;;;13.00;99.90;;;;;;4989830;28;20034;-80
2022/10/24 07:09:31;;;;;;;5.65;3.03;;;12.90;99.90;;;;;;5004432;28;20034;-81
2022/10/24 07:11:58;;;;;;;4.97;2.97;;;13.00;99.90;;;;;;4972116;28;20100;-81
2022/10/24 07:14:24;;;;;;;3.30;2.58;;;13.10;99.90;;;;;;4988173;28;20027;-81
2022/10/24 07:16:51;;;;;;;6.78;2.95;;;13.10;99.90;;;;;;4989942;28;20031;-80
2022/10/24 07:19:17;;;;;;;5.78;2.80;;;13.20;99.90;;;;;;4971949;28;20062;-80
2022/10/24 07:21:43;;;;;;;6.22;2.47;;;13.30;99.90;;;;;;4990866;28;20491;-81
2022/10/24 07:24:11;;;;;;;4.32;2.72;;;13.30;99.90;;;;;;4989366;28;20129;-81
2022/10/24 07:26:38;;;;;;;8.18;3.08;;;13.40;99.90;;;;;;4998814;28;20072;-80
2022/10/24 07:29:04;;;;;;;9.52;3.55;;;13.50;99.90;;;;;;5009052;28;20031;-80
2022/10/24 07:31:33;;;;;;;5.22;3.15;;;13.50;99.90;;;;;;5000412;28;20517;-81
2022/10/24 07:34:01;;;;;;;4.82;2.90;;;13.40;99.90;;;;;;4991466;28;20100;-80
2022/10/24 07:36:29;;;;;;;9.05;3.35;;;13.40;99.90;;;;;;4992176;28;20514;-81
2022/10/24 07:38:56;;;;;;;7.10;3.70;;;13.40;99.90;;;;;;4972356;28;20035;-81
2022/10/24 07:41:23;;;;;;;4.88;3.45;;;13.40;99.90;;;;;;4972345;28;20485;-81
2022/10/24 07:43:49;;;;;;;8.77;3.38;;;13.30;99.90;;;;;;4992617;28;20041;-81
2022/10/24 07:46:17;;;;;;;6.30;3.28;;;13.40;99.90;;;;;;4974797;28;20113;-81
2022/10/24 07:48:43;;;;;;;10.13;4.80;;;13.40;99.90;;;;;;4992609;28;20030;-81
2022/10/24 07:51:11;;;;;;;16.20;4.15;;;13.40;99.90;;;;;;4994582;28;20036;-82
2022/10/24 07:53:37;;;;;;;7.57;3.50;;;13.30;99.90;;;;;;4994360;28;20670;-81
2022/10/24 07:56:09;;;;;;;12.07;4.22;;;13.30;99.90;;;;;;4981690;28;20237;-81
2022/10/24 07:58:35;;;;;;;7.60;4.22;;;13.10;99.90;;;;;;4976384;28;20033;-81
2022/10/24 08:01:07;;;;;;;8.25;4.30;;;13.10;99.90;;;;;;4999107;28;20026;-82
2022/10/24 08:03:33;;;;;;;8.00;4.05;;;13.10;99.90;;;;;;4992809;28;20069;-81
2022/10/24 08:05:59;;;;;;;5.63;3.08;;;13.20;99.90;;;;;;4993109;28;20041;-82
2022/10/24 08:08:24;;;;;;;8.60;3.88;;;13.10;99.90;;;;;;4991432;28;20053;-82
2022/10/24 08:10:50;;;;;;;10.88;4.15;;;13.10;99.90;;;;;;4992608;28;20465;-82
2022/10/24 08:13:16;;;;;;;12.68;3.80;;;13.00;99.90;;;;;;4972282;28;20808;-83
2022/10/24 08:15:42;;;;;;;8.45;3.50;;;13.00;99.90;;;;;;4961502;28;20022;-81
2022/10/24 08:18:08;;;;;;;7.70;3.40;;;13.00;99.90;;;;;;4971864;28;20496;-82
2022/10/24 08:20:34;;;;;;;10.70;3.30;;;13.00;99.90;;;;;;4990388;28;20453;-83
2022/10/24 08:23:00;;;;;;;8.48;3.38;;;13.00;99.90;;;;;;4975842;28;20567;-81
2022/10/24 08:25:26;;;;;;;8.38;3.20;;;13.10;99.90;;;;;;4976986;28;20037;-82
2022/10/24 08:27:51;;;;;;;8.50;3.00;;;13.10;99.90;;;;;;5009077;28;20035;-82
2022/10/24 08:30:19;;;;;;;7.25;3.38;;;13.10;99.90;;;;;;4975572;28;20038;-82
2022/10/24 08:32:45;;;;;;;7.22;3.00;;;13.10;99.90;;;;;;4991157;28;20069;-81
2022/10/24 08:35:15;;;;;;;6.68;2.30;;;13.00;99.90;;;;;;4991109;28;20065;-81
2022/10/24 08:37:41;;;;;;;5.35;2.85;;;13.00;99.90;;;;;;4992767;28;20360;-79
2022/10/24 08:40:11;;;;;;;5.22;2.83;;;13.00;99.90;;;;;;4989908;28;20041;-81
2022/10/24 08:42:38;;;;;;;5.43;2.72;;;13.00;99.90;;;;;;4990036;28;20026;-81
2022/10/24 08:45:12;;;;;;;5.45;2.78;;;13.00;99.90;;;;;;4990450;28;20088;-83
2022/10/24 08:47:43;;;;;;;6.85;3.42;;;13.00;99.90;;;;;;4989914;28;20038;-83
2022/10/24 08:50:22;;;;;;;5.75;2.83;;;13.00;99.90;;;;;;4974559;28;20042;-82
2022/10/24 08:52:53;;;;;;;6.60;2.70;;;13.00;99.90;;;;;;4954755;28;20077;-81
2022/10/24 08:55:28;;;;;;;6.13;3.08;;;13.00;99.90;;;;;;4975094;28;20038;-81
2022/10/24 08:57:58;;;;;;;4.33;1.70;;;13.00;99.90;;;;;;4955506;28;20043;-82
2022/10/24 09:00:30;;;;;;;9.77;2.10;;;13.00;99.90;;;;;;4958741;28;20467;-83
2022/10/24 09:03:13;;;;;;;2.88;1.40;;;12.90;99.90;;;;;;4975642;28;20030;-82
2022/10/24 09:05:46;;;;;;;3.15;1.52;;;12.80;99.90;;;;;;4991419;28;20061;-81
2022/10/24 09:08:35;;;;;;;4.47;1.40;;;12.70;99.90;;;;;;4986571;28;20035;-82
2022/10/24 09:11:03;;;;;;;4.30;1.50;;;12.80;99.90;;;;;;4993578;28;20022;-82
2022/10/24 09:13:30;;;;;;;2.95;1.33;;;12.80;99.90;;;;;;4989693;28;20130;-80
2022/10/24 09:15:56;;;;;;;2.60;1.30;;;12.80;99.90;;;;;;5005805;28;20115;-82
2022/10/24 09:18:33;;;;;;;2.75;1.48;;;12.80;99.90;;;;;;4991325;28;20022;-82
2022/10/24 09:21:00;;;;;;;4.05;1.50;;;12.80;99.90;;;;;;4992699;28;20030;-83
2022/10/24 09:23:26;;;;;;;3.90;1.48;;;12.80;99.90;;;;;;4989783;28;20038;-82
2022/10/24 09:25:56;;;;;;;4.80;1.60;;;12.80;99.90;;;;;;4973548;28;20022;-82
2022/10/24 09:28:23;;;;;;;2.72;1.42;;;12.90;99.90;;;;;;4989606;28;20380;-82
2022/10/24 09:30:49;;;;;;;2.97;1.70;;;12.90;99.90;;;;;;4989544;28;20022;-82
2022/10/24 09:33:32;;;;;;;5.20;1.80;;;13.00;99.90;;;;;;4989575;28;20030;-82
2022/10/24 09:36:01;;;;;;;2.25;1.60;;;13.10;99.90;;;;;;4973142;28;20506;-82
2022/10/24 09:38:47;;;;;;;3.35;1.90;;;13.20;99.90;;;;;;5006027;28;20053;-82
2022/10/24 09:41:13;;;;;;;;;;;13.20;99.90;;;;;;5004313;28;20412;-81
2022/10/24 09:44:00;;;;;;;;;;;13.30;99.90;;;;;;4989561;28;19918;-83
2022/10/24 09:46:33;;;;;;;3.95;1.90;;;13.30;99.90;;;;;;4989704;28;20370;-81
2022/10/24 09:49:05;;;;;;;4.43;1.80;;;13.40;99.90;;;;;;5004695;28;20128;-82
2022/10/24 09:51:40;;;;;;;3.97;1.60;;;13.50;99.90;;;;;;4989288;28;20031;-82
2022/10/24 09:54:17;;;;;;;4.45;1.63;;;13.50;99.90;;;;;;4969781;28;20057;-82
2022/10/24 09:57:14;;;;;;;2.38;1.50;;;13.50;99.90;;;;;;4997238;28;20027;-81
2022/10/24 09:59:42;;;;;;;1.50;1.40;;;13.60;99.90;;;;;;4974550;28;20500;-82
2022/10/24 10:03:16;;;;;;;3.20;1.60;;;13.50;99.90;;;;;;4990165;28;20030;-82
2022/10/24 10:05:47;;;;;;;4.45;1.77;;;13.50;99.90;;;;;;4969266;28;20030;-82
2022/10/24 10:08:20;;;;;;;2.10;1.52;;;13.50;99.90;;;;;;4965042;28;20039;-82
2022/10/24 10:10:59;;;;;;;6.32;1.60;;;13.50;99.90;;;;;;4972157;28;20061;-81
2022/10/24 10:13:26;;;;;;;2.20;1.45;;;13.60;99.90;;;;;;5024967;28;20021;-82
2022/10/24 10:16:02;;;;;;;1.38;1.13;;;13.60;99.90;;;;;;4988784;28;20026;-81
2022/10/24 10:18:31;;;;;;;3.15;1.40;;;13.60;99.90;;;;;;4988874;28;20088;-81
2022/10/24 10:21:06;;;;;;;5.45;1.42;;;13.70;99.90;;;;;;4990448;28;20037;-82
2022/10/24 10:23:56;;;;;;;2.88;1.55;;;13.70;99.90;;;;;;4998888;28;20058;-82
2022/10/24 10:26:40;;;;;;;5.22;1.50;;;13.70;99.90;;;;;;4983074;28;20038;-82
2022/10/24 10:29:15;;;;;;;4.68;1.35;;;13.70;99.90;;;;;;5005130;28;20062;-82
2022/10/24 10:31:45;;;;;;;4.78;1.13;;;13.70;99.90;;;;;;4990559;28;20030;-82
2022/10/24 10:34:21;;;;;;;2.75;1.83;;;13.80;99.90;;;;;;4983277;28;20042;-82
2022/10/24 10:37:22;;;;;;;2.65;1.38;;;13.80;99.90;;;;;;4973444;28;20121;-82
2022/10/24 10:40:12;;;;;;;2.38;1.25;;;13.90;99.90;;;;;;4968837;28;20031;-81
2022/10/24 10:42:40;;;;;;;5.07;1.55;;;13.90;99.90;;;;;;4969577;28;20034;-82
2022/10/24 10:45:15;;;;;;;3.53;1.10;;;13.90;99.90;;;;;;4984751;28;20037;-82
2022/10/24 10:48:00;;;;;;;3.10;1.15;;;14.00;99.90;;;;;;4953028;28;20411;-82
2022/10/24 10:50:36;;;;;;;4.18;1.35;;;14.00;99.90;;;;;;4990794;28;20041;-81
2022/10/24 10:53:23;;;;;;;3.47;1.40;;;14.00;99.90;;;;;;4980506;28;20125;-82
2022/10/24 10:56:23;;;;;;;3.45;1.35;;;14.00;99.90;;;;;;4973884;28;20057;-82
2022/10/24 10:59:36;;;;;;;1.80;1.13;;;14.00;99.90;;;;;;5004532;28;20045;-82
2022/10/24 11:02:27;;;;;;;3.22;1.10;;;14.00;99.90;;;;;;5019254;28;20032;-82
2022/10/24 11:05:31;;;;;;;4.57;0.93;;;14.00;99.90;;;;;;4970421;28;20030;-82
2022/10/24 11:08:11;;;;;;;2.40;1.00;;;14.00;99.90;;;;;;5001624;28;20077;-81
2022/10/24 11:10:46;;;;;;;4.70;1.10;;;14.00;99.90;;;;;;4987879;28;20589;-82
2022/10/24 11:13:21;;;;;;;4.10;0.90;;;14.00;99.90;;;;;;5001169;28;20039;-81
2022/10/24 11:15:49;;;;;;;;;;;14.10;99.90;;;;;;5006384;28;20638;-81
2022/10/24 11:18:37;;;;;;;2.90;0.80;;;14.10;99.90;;;;;;5009323;28;19910;-82
2022/10/24 11:21:07;;;;;;;3.05;1.17;;;14.10;99.90;;;;;;4972466;28;20150;-81
2022/10/24 11:23:36;;;;;;;6.05;1.10;;;14.10;99.90;;;;;;4989438;28;20547;-81
2022/10/24 11:26:28;;;;;;;4.10;1.38;;;14.20;99.90;;;;;;4972541;28;20101;-81
2022/10/24 11:29:22;;;;;;;3.75;1.20;;;14.20;99.90;;;;;;4976270;28;20045;-82
2022/10/24 11:31:54;;;;;;;2.17;1.30;;;14.20;99.90;;;;;;4978867;28;20037;-81
2022/10/24 11:34:31;;;;;;;3.28;1.20;;;14.20;99.90;;;;;;4988557;28;20097;-81
2022/10/24 11:37:16;;;;;;;2.20;1.15;;;14.20;99.90;;;;;;4994547;28;20077;-82
2022/10/24 11:40:17;;;;;;;2.30;1.40;;;14.20;99.90;;;;;;4978453;28;20034;-81
2022/10/24 11:43:01;;;;;;;3.05;1.30;;;14.10;99.90;;;;;;4967536;28;20093;-81
2022/10/24 11:45:33;;;;;;;3.03;1.02;;;14.10;99.90;;;;;;4954778;28;20042;-81
2022/10/24 11:48:25;;;;;;;0.80;0.70;;;14.20;99.90;;;;;;4989042;28;20483;-82
2022/10/24 11:51:00;;;;;;;2.33;0.85;;;14.20;99.90;;;;;;4984048;28;20046;-81
2022/10/24 11:53:30;;;;;;;1.05;0.82;;;14.20;99.90;;;;;;4973491;28;20428;-82
2022/10/24 11:56:04;;;;;;;2.03;1.27;;;14.20;99.90;;;;;;4993894;28;20022;-84
2022/10/24 11:58:33;;;;;;;1.92;1.20;;;14.30;99.90;;;;;;4968318;28;20089;-80
2022/10/24 12:01:13;;;;;;;7.10;1.67;;;14.30;99.90;;;;;;4959341;28;20096;-84
2022/10/24 12:03:51;;;;;;;3.80;1.58;;;14.40;99.90;;;;;;4987541;28;20030;-82
2022/10/24 12:06:41;;;;;;;4.43;1.20;;;14.30;99.90;;;;;;4966021;28;20023;-83
2022/10/24 12:09:16;;;;;;;3.45;1.08;;;14.40;99.90;;;;;;4971849;28;20034;-83
2022/10/24 12:12:04;;;;;;;5.55;1.35;;;14.40;99.90;;;;;;4983813;28;20034;-83
2022/10/24 12:15:09;;;;;;;3.80;1.48;;;14.40;99.90;;;;;;5009206;28;20159;-82
2022/10/24 12:17:59;;;;;;;1.95;1.30;;;14.50;99.90;;;;;;4973818;28;20062;-81
2022/10/24 12:20:25;;;;;;;4.57;1.45;;;14.50;99.90;;;;;;4992798;28;20030;-81
2022/10/24 12:22:52;;;;;;;3.35;2.00;;;14.60;99.90;;;;;;4991313;28;20089;-81
2022/10/24 12:25:28;;;;;;;3.33;1.40;;;14.60;99.90;;;;;;4990974;28;20069;-81
2022/10/24 12:27:56;;;;;;;1.92;1.50;;;14.70;99.90;;;;;;5007421;28;20397;-81
2022/10/24 12:30:25;;;;;;;4.35;1.60;;;14.80;99.90;;;;;;4991963;28;20105;-81
2022/10/24 12:32:55;;;;;;;3.67;1.52;;;14.80;99.90;;;;;;4990988;28;20031;-81
2022/10/24 12:35:29;;;;;;;4.65;2.05;;;14.90;99.90;;;;;;4991977;28;20042;-81
2022/10/24 12:37:55;;;;;;;3.65;1.13;;;14.90;99.90;;;;;;5003660;28;20126;-81
2022/10/24 12:40:56;;;;;;;3.53;1.73;;;14.90;99.90;;;;;;4988753;28;20089;-80
2022/10/24 12:43:31;;;;;;;2.58;1.30;;;15.00;99.90;;;;;;4970988;28;20053;-81
2022/10/24 12:46:03;;;;;;;2.65;1.30;;;15.00;99.90;;;;;;4981282;28;20054;-81
2022/10/24 12:48:35;;;;;;;2.90;1.40;;;15.10;99.90;;;;;;4990419;28;20038;-81
2022/10/24 12:51:35;;;;;;;3.28;1.52;;;15.10;99.90;;;;;;4990426;28;20030;-81
2022/10/24 12:54:10;;;;;;;1.88;1.35;;;15.20;99.90;;;;;;4990477;28;20109;-81
2022/10/24 12:56:59;;;;;;;5.70;1.30;;;15.30;99.90;;;;;;5002191;28;20146;-80
2022/10/24 12:59:30;;;;;;;10.45;2.05;;;15.30;99.90;;;;;;4990181;28;20034;-80
2022/10/24 13:02:14;;;;;;;4.90;1.40;;;15.40;99.90;;;;;;4990095;28;20037;-81
2022/10/24 13:05:13;;;;;;;4.93;1.48;;;15.40;99.90;;;;;;4990109;28;20034;-80
2022/10/24 13:08:34;;;;;;;7.75;2.63;;;15.40;99.90;;;;;;4991515;28;20449;-81
2022/10/24 13:11:23;;;;;;;5.68;1.40;;;15.40;99.90;;;;;;4971005;28;20046;-81